Browns, Illinois
Current Conditions -  °F | °C
As of 6:55 AM on Friday 31 Oct 2014 (Local Time) from KAJG Reporting Station
Overcast Overcast  
Wind Chill: 43°   Ceiling: 8500
Heat Index: 46°   Visibility: 10mi
Dew Point: 45°   Wind: 7mph
Humidity: 93%   Direction: 300°WNW
Pressure: 30.05"   Gusts: NA
Location:  38.38°N, 87.98°W
Report Text: KAJG 311155Z AUTO 30006KT 10SM BKN085 OVC120 08/07 A3005 RMK AO2
Loading
Personal Weather Stations






























Interactive Weather Map
Tropical Storm Tracking
New forecast layout! Learn more

10-Day Weather Forecast

Advertisements
Track Severe Weather on mobile